createdAt,value
2018-06-08T00:00:51.196Z,15.43
2018-06-08T00:01:51.450Z,15.43
2018-06-08T00:02:51.190Z,15.45
2018-06-08T00:03:51.185Z,15.44
2018-06-08T00:04:51.437Z,15.35
2018-06-08T00:05:51.177Z,15.4
2018-06-08T00:06:51.426Z,15.44
2018-06-08T00:07:51.167Z,15.31
2018-06-08T00:08:51.421Z,15.4
2018-06-08T00:09:51.411Z,15.45
2018-06-08T00:10:51.417Z,15.37
2018-06-08T00:11:50.894Z,15.34
2018-06-08T00:12:51.407Z,15.38
2018-06-08T00:13:51.141Z,15.41
2018-06-08T00:14:51.134Z,15.41
2018-06-08T00:15:51.133Z,15.34
2018-06-08T00:16:51.134Z,15.41
2018-06-08T00:17:51.121Z,15.45
2018-06-08T00:18:51.115Z,15.38
2018-06-08T00:19:51.115Z,15.4
2018-06-08T00:20:51.369Z,15.41
2018-06-08T00:21:51.369Z,15.35
2018-06-08T00:22:51.098Z,15.4
2018-06-08T00:23:51.354Z,15.31
2018-06-08T00:24:51.349Z,15.3
2018-06-08T00:25:51.344Z,15.31
2018-06-08T00:26:51.076Z,15.3
2018-06-08T00:27:51.331Z,15.27
2018-06-08T00:28:51.331Z,15.25
2018-06-08T00:29:51.068Z,15.23
2018-06-08T00:30:51.066Z,15.23
2018-06-08T00:31:50.802Z,15.19
2018-06-08T00:32:50.795Z,15.16
2018-06-08T00:33:51.304Z,15.2
2018-06-08T00:34:51.301Z,15.13
2018-06-08T00:35:51.299Z,15.12
2018-06-08T00:36:51.289Z,15.18
2018-06-08T00:37:51.296Z,15.12
2018-06-08T00:38:51.286Z,15.15
2018-06-08T00:39:51.314Z,15.13
2018-06-08T00:40:51.283Z,15.08
2018-06-08T00:41:51.274Z,15.18
2018-06-08T00:42:51.265Z,15.15
2018-06-08T00:43:51.000Z,15.19
2018-06-08T00:44:50.998Z,15.13
2018-06-08T00:45:50.994Z,15.16
2018-06-08T00:46:50.984Z,15.19
2018-06-08T00:47:51.003Z,15.19
2018-06-08T00:48:50.719Z,15.12
2018-06-08T00:49:51.227Z,15.18
2018-06-08T00:50:51.230Z,15.16
2018-06-08T00:51:51.224Z,15.08
2018-06-08T00:52:51.214Z,15.12
2018-06-08T00:53:51.211Z,15.1
2018-06-08T00:54:51.211Z,15.12
2018-06-08T00:55:50.948Z,15.19
2018-06-08T00:56:50.949Z,15.12
2018-06-08T00:57:51.194Z,15.12
2018-06-08T00:58:51.189Z,15.1
2018-06-08T00:59:51.178Z,15.07
2018-06-08T01:00:51.183Z,15.05
2018-06-08T01:01:50.917Z,15.02
2018-06-08T01:02:50.916Z,15.01
2018-06-08T01:03:51.162Z,15.07
2018-06-08T01:04:50.907Z,15.04
2018-06-08T01:05:50.897Z,15.04
2018-06-08T01:06:50.892Z,15.04
2018-06-08T01:07:50.630Z,15.05
2018-06-08T01:08:50.626Z,15.05
2018-06-08T01:09:51.136Z,15
2018-06-08T01:10:51.134Z,14.97
2018-06-08T01:11:51.128Z,14.98
2018-06-08T01:12:50.871Z,14.95
2018-06-08T01:13:50.861Z,14.93
2018-06-08T01:14:50.866Z,14.89
2018-06-08T01:15:51.106Z,14.95
2018-06-08T01:16:51.099Z,14.93
2018-06-08T01:17:50.842Z,14.86
2018-06-08T01:18:50.832Z,14.86
2018-06-08T01:19:51.107Z,14.86
2018-06-08T01:20:51.090Z,14.79
2018-06-08T01:21:50.821Z,14.86
2018-06-08T01:22:50.829Z,14.79
2018-06-08T01:23:50.813Z,14.89
2018-06-08T01:24:50.809Z,14.7
2018-06-08T01:25:50.798Z,14.67
2018-06-08T01:26:50.797Z,14.75
2018-06-08T01:27:50.791Z,14.69
2018-06-08T01:28:51.042Z,14.74
2018-06-08T01:29:50.779Z,14.64
2018-06-08T01:30:50.777Z,14.57
2018-06-08T01:31:50.769Z,14.67
2018-06-08T01:32:51.025Z,14.67
2018-06-08T01:33:51.020Z,14.7
2018-06-08T01:34:50.499Z,14.7
2018-06-08T01:35:50.751Z,14.66
2018-06-08T01:36:50.745Z,14.7
2018-06-08T01:37:51.058Z,14.61
2018-06-08T01:38:51.008Z,14.66
2018-06-08T01:39:50.831Z,14.64
2018-06-08T01:40:50.986Z,14.64
2018-06-08T01:41:51.068Z,14.63
2018-06-08T01:42:50.973Z,14.6
2018-06-08T01:43:50.966Z,14.6
2018-06-08T01:44:50.706Z,14.51
2018-06-08T01:45:50.445Z,14.49
2018-06-08T01:46:50.442Z,14.56
2018-06-08T01:47:50.948Z,14.49
2018-06-08T01:48:50.941Z,14.52
2018-06-08T01:49:50.683Z,14.48
2018-06-08T01:50:50.941Z,14.51
2018-06-08T01:51:50.930Z,14.49
2018-06-08T01:52:50.926Z,14.45
2018-06-08T01:53:50.661Z,14.49
2018-06-08T01:54:50.913Z,14.46
2018-06-08T01:55:50.650Z,14.48
2018-06-08T01:56:50.901Z,14.45
2018-06-08T01:57:51.062Z,14.53
2018-06-08T01:58:50.812Z,14.51
2018-06-08T01:59:50.885Z,14.52
2018-06-08T02:00:50.672Z,14.45
2018-06-08T02:01:50.630Z,14.44
2018-06-08T02:02:50.896Z,14.44
2018-06-08T02:03:50.609Z,14.39
2018-06-08T02:04:50.603Z,14.38
2018-06-08T02:05:50.341Z,14.38
2018-06-08T02:06:50.593Z,14.36
2018-06-08T02:07:50.841Z,14.31
2018-06-08T02:08:50.583Z,14.3
2018-06-08T02:09:50.838Z,14.33
2018-06-08T02:10:50.827Z,14.28
2018-06-08T02:11:50.821Z,14.3
2018-06-08T02:12:50.821Z,14.31
2018-06-08T02:13:50.811Z,14.3
2018-06-08T02:14:50.809Z,14.33
2018-06-08T02:15:50.817Z,14.28
2018-06-08T02:16:50.794Z,14.24
2018-06-08T02:17:50.538Z,14.24
2018-06-08T02:18:50.785Z,14.2
2018-06-08T02:19:50.522Z,14.26
2018-06-08T02:20:50.777Z,14.33
2018-06-08T02:21:50.516Z,14.26
2018-06-08T02:22:50.506Z,14.28
2018-06-08T02:23:50.244Z,14.31
2018-06-08T02:24:50.756Z,14.24
2018-06-08T02:25:50.232Z,14.31
2018-06-08T02:26:50.742Z,14.28
2018-06-08T02:27:50.480Z,14.26
2018-06-08T02:28:50.214Z,14.28
2018-06-08T02:29:50.470Z,14.3
2018-06-08T02:30:50.722Z,14.23
2018-06-08T02:31:50.458Z,14.26
2018-06-08T02:32:50.713Z,14.3
2018-06-08T02:33:50.448Z,14.26
2018-06-08T02:34:50.446Z,14.26
2018-06-08T02:35:50.702Z,14.26
2018-06-08T02:36:50.433Z,14.24
2018-06-08T02:37:50.421Z,14.26
2018-06-08T02:38:50.164Z,14.27
2018-06-08T02:39:50.420Z,14.27
2018-06-08T02:40:50.436Z,14.2
2018-06-08T02:41:50.428Z,14.2
2018-06-08T02:42:50.652Z,14.23
2018-06-08T02:43:50.654Z,14.15
2018-06-08T02:44:50.647Z,14.16
2018-06-08T02:45:50.382Z,14.23
2018-06-08T02:46:50.372Z,14.11
2018-06-08T02:47:50.641Z,14.21
2018-06-08T02:48:50.619Z,14.11
2018-06-08T02:49:50.359Z,14.15
2018-06-08T02:50:50.621Z,14.12
2018-06-08T02:51:50.614Z,14.16
2018-06-08T02:52:50.611Z,14.15
2018-06-08T02:53:50.081Z,14.09
2018-06-08T02:54:50.591Z,14.16
2018-06-08T02:55:50.340Z,14.12
2018-06-08T02:56:50.318Z,14.12
2018-06-08T02:57:50.315Z,14.15
2018-06-08T02:58:50.594Z,14.06
2018-06-08T02:59:50.559Z,14.09
2018-06-08T03:00:50.302Z,14.15
2018-06-08T03:01:50.290Z,14.11
2018-06-08T03:02:50.549Z,14.23
2018-06-08T03:03:50.560Z,14.15
2018-06-08T03:04:50.273Z,14.27
2018-06-08T03:05:50.294Z,14.26
2018-06-08T03:06:50.603Z,14.27
2018-06-08T03:07:50.260Z,14.28
2018-06-08T03:08:50.509Z,14.21
2018-06-08T03:09:50.248Z,14.28
2018-06-08T03:10:50.252Z,14.26
2018-06-08T03:11:49.977Z,14.27
2018-06-08T03:12:50.489Z,14.28
2018-06-08T03:13:50.486Z,14.3
2018-06-08T03:14:50.484Z,14.31
2018-06-08T03:15:50.471Z,14.28
2018-06-08T03:16:50.460Z,14.33
2018-06-08T03:17:50.459Z,14.42
2018-06-08T03:18:50.455Z,14.31
2018-06-08T03:19:50.192Z,14.33
2018-06-08T03:20:50.452Z,14.41
2018-06-08T03:21:50.437Z,14.39
2018-06-08T03:22:50.177Z,14.46
2018-06-08T03:23:49.908Z,14.42
2018-06-08T03:24:50.422Z,14.41
2018-06-08T03:25:50.424Z,14.44
2018-06-08T03:26:50.410Z,14.39
2018-06-08T03:27:50.401Z,14.49
2018-06-08T03:28:50.394Z,14.34
2018-06-08T03:29:50.389Z,14.44
2018-06-08T03:30:50.449Z,14.49
2018-06-08T03:31:50.386Z,14.49
2018-06-08T03:32:50.122Z,14.48
2018-06-08T03:33:50.370Z,14.48
2018-06-08T03:34:50.365Z,14.52
2018-06-08T03:35:50.362Z,14.49
2018-06-08T03:36:50.366Z,14.52
2018-06-08T03:37:50.092Z,14.51
2018-06-08T03:38:50.090Z,14.48
2018-06-08T03:39:50.078Z,14.46
2018-06-08T03:40:50.333Z,14.51
2018-06-08T03:41:50.327Z,14.51
2018-06-08T03:42:50.318Z,14.59
2018-06-08T03:43:50.320Z,14.64
2018-06-08T03:44:50.053Z,14.63
2018-06-08T03:45:50.307Z,14.63
2018-06-08T03:46:50.041Z,14.66
2018-06-08T03:47:50.293Z,14.63
2018-06-08T03:48:50.284Z,14.75
2018-06-08T03:49:50.282Z,14.7
2018-06-08T03:50:50.278Z,14.79
2018-06-08T03:51:49.755Z,14.82
2018-06-08T03:52:50.262Z,14.82
2018-06-08T03:53:50.005Z,14.89
2018-06-08T03:54:50.260Z,14.89
2018-06-08T03:55:49.990Z,14.87
2018-06-08T03:56:49.731Z,14.97
2018-06-08T03:57:49.983Z,15
2018-06-08T03:58:50.231Z,15.02
2018-06-08T03:59:50.228Z,15.05
2018-06-08T04:00:49.967Z,15.1
2018-06-08T04:01:50.218Z,15.15
2018-06-08T04:02:49.953Z,15.19
2018-06-08T04:03:50.209Z,15.19
2018-06-08T04:04:49.945Z,15.23
2018-06-08T04:05:50.198Z,15.41
2018-06-08T04:06:50.191Z,15.26
2018-06-08T04:07:50.187Z,15.41
2018-06-08T04:08:49.927Z,15.4
2018-06-08T04:09:49.917Z,15.43
2018-06-08T04:10:50.176Z,15.53
2018-06-08T04:11:50.167Z,15.53
2018-06-08T04:12:50.167Z,15.6
2018-06-08T04:13:50.165Z,15.6
2018-06-08T04:14:49.901Z,15.6
2018-06-08T04:15:49.888Z,15.73
2018-06-08T04:16:49.892Z,15.75
2018-06-08T04:17:50.143Z,15.84
2018-06-08T04:18:50.135Z,15.86
2018-06-08T04:19:49.871Z,15.92
2018-06-08T04:20:50.122Z,15.98
2018-06-08T04:21:50.127Z,15.95
2018-06-08T04:22:50.124Z,16.08
2018-06-08T04:23:50.164Z,16.11
2018-06-08T04:24:50.108Z,16.18
2018-06-08T04:25:50.307Z,16.25
2018-06-08T04:26:50.094Z,16.25
2018-06-08T04:27:50.088Z,16.26
2018-06-08T04:28:49.828Z,16.33
2018-06-08T04:29:49.823Z,16.29
2018-06-08T04:30:49.820Z,16.33
2018-06-08T04:31:49.914Z,16.39
2018-06-08T04:32:50.264Z,16.51
2018-06-08T04:33:49.804Z,16.54
2018-06-08T04:34:49.544Z,16.57
2018-06-08T04:35:50.057Z,16.65
2018-06-08T04:36:50.047Z,16.69
2018-06-08T04:37:50.051Z,16.73
2018-06-08T04:38:49.528Z,16.76
2018-06-08T04:39:50.035Z,16.82
2018-06-08T04:40:50.033Z,16.82
2018-06-08T04:41:49.771Z,16.91
2018-06-08T04:42:49.508Z,16.82
2018-06-08T04:43:49.761Z,16.94
2018-06-08T04:44:50.017Z,16.95
2018-06-08T04:45:50.017Z,17.1
2018-06-08T04:46:49.752Z,17.09
2018-06-08T04:47:49.747Z,17.06
2018-06-08T04:48:49.745Z,17.07
2018-06-08T04:49:49.998Z,17.13
2018-06-08T04:50:49.735Z,17.21
2018-06-08T04:51:50.172Z,17.21
2018-06-08T04:52:50.002Z,17.28
2018-06-08T04:53:49.469Z,17.28
2018-06-08T04:54:49.465Z,17.32
2018-06-08T04:55:49.978Z,17.47
2018-06-08T04:56:49.975Z,17.52
2018-06-08T04:57:49.710Z,17.55
2018-06-08T04:58:49.704Z,17.55
2018-06-08T04:59:49.964Z,17.45
2018-06-08T05:00:49.695Z,17.55
2018-06-08T05:01:49.703Z,17.57
2018-06-08T05:02:49.958Z,17.55
2018-06-08T05:03:49.997Z,17.55
2018-06-08T05:04:49.953Z,17.65
2018-06-08T05:05:49.688Z,17.62
2018-06-08T05:06:49.675Z,17.71
2018-06-08T05:07:49.931Z,17.76
2018-06-08T05:08:49.414Z,17.76
2018-06-08T05:09:49.789Z,17.8
2018-06-08T05:10:49.409Z,17.87
2018-06-08T05:11:49.923Z,17.92
2018-06-08T05:12:49.924Z,17.98
2018-06-08T05:13:49.915Z,18.03
2018-06-08T05:14:49.917Z,18.01
2018-06-08T05:15:49.656Z,18.02
2018-06-08T05:16:49.645Z,18.1
2018-06-08T05:17:49.647Z,18.17
2018-06-08T05:18:49.900Z,18.13
2018-06-08T05:19:49.638Z,18.21
2018-06-08T05:20:49.641Z,18.31
2018-06-08T05:21:49.631Z,18.31
2018-06-08T05:22:49.880Z,18.26
2018-06-08T05:23:49.626Z,18.35
2018-06-08T05:24:49.369Z,18.41
2018-06-08T05:25:49.881Z,18.47
2018-06-08T05:26:49.890Z,18.54
2018-06-08T05:27:49.615Z,18.53
2018-06-08T05:28:49.610Z,18.6
2018-06-08T05:29:49.872Z,18.61
2018-06-08T05:30:49.608Z,18.71
2018-06-08T05:31:49.989Z,18.79
2018-06-08T05:32:49.860Z,18.84
2018-06-08T05:33:49.856Z,18.96
2018-06-08T05:34:49.850Z,18.9
2018-06-08T05:35:49.856Z,19.05
2018-06-08T05:36:49.596Z,19
2018-06-08T05:37:49.597Z,19.15
2018-06-08T05:38:49.849Z,19.17
2018-06-08T05:39:49.842Z,19.28
2018-06-08T05:40:49.588Z,19.23
2018-06-08T05:41:49.837Z,19.27
2018-06-08T05:42:49.581Z,19.32
2018-06-08T05:43:49.577Z,19.28
2018-06-08T05:44:49.575Z,19.37
2018-06-08T05:45:49.574Z,19.45
2018-06-08T05:46:49.830Z,19.4
2018-06-08T05:47:49.821Z,19.5
2018-06-08T05:48:49.825Z,19.49
2018-06-08T05:49:49.572Z,19.6
2018-06-08T05:50:49.822Z,19.6
2018-06-08T05:51:49.862Z,19.64
2018-06-08T05:52:49.814Z,19.87
2018-06-08T05:53:50.045Z,19.95
2018-06-08T05:54:49.817Z,20
2018-06-08T05:55:49.550Z,20.04
2018-06-08T05:56:49.806Z,20.16
2018-06-08T05:57:49.801Z,20.18
2018-06-08T05:58:49.550Z,20.25
2018-06-08T05:59:49.803Z,20.3
2018-06-08T06:00:49.807Z,20.51
2018-06-08T06:01:49.545Z,20.46
2018-06-08T06:02:49.544Z,20.63
2018-06-08T06:03:49.540Z,20.63
2018-06-08T06:04:49.535Z,20.75
2018-06-08T06:05:49.547Z,20.76
2018-06-08T06:06:49.539Z,20.76
2018-06-08T06:07:49.529Z,20.75
2018-06-08T06:08:49.797Z,20.85
2018-06-08T06:09:49.532Z,20.83
2018-06-08T06:10:49.535Z,20.9
2018-06-08T06:11:49.789Z,20.88
2018-06-08T06:12:49.531Z,20.96
2018-06-08T06:13:49.786Z,20.94
2018-06-08T06:14:49.815Z,21
2018-06-08T06:15:49.785Z,21.06
2018-06-08T06:16:49.784Z,21.22
2018-06-08T06:17:49.784Z,21.31
2018-06-08T06:18:49.780Z,21.27
2018-06-08T06:19:49.289Z,21.28
2018-06-08T06:20:49.555Z,21.37
2018-06-08T06:21:49.778Z,21.43
2018-06-08T06:22:49.518Z,21.4
2018-06-08T06:23:49.515Z,21.45
2018-06-08T06:24:49.770Z,21.53
2018-06-08T06:25:49.782Z,21.53
2018-06-08T06:26:49.775Z,21.52
2018-06-08T06:27:49.775Z,21.64
2018-06-08T06:28:49.772Z,21.59
2018-06-08T06:29:49.773Z,21.76
2018-06-08T06:30:49.784Z,21.86
2018-06-08T06:31:49.790Z,21.97
2018-06-08T06:32:49.516Z,22.02
2018-06-08T06:33:49.772Z,21.97
2018-06-08T06:34:49.513Z,21.9
2018-06-08T06:35:49.773Z,22.05
2018-06-08T06:36:49.518Z,22.12
2018-06-08T06:37:49.773Z,22.3
2018-06-08T06:38:49.773Z,22.34
2018-06-08T06:39:49.774Z,22.63
2018-06-08T06:40:49.779Z,23.21
2018-06-08T06:41:49.520Z,23.84
2018-06-08T06:42:49.518Z,24.44
2018-06-08T06:43:49.779Z,24.87
2018-06-08T06:44:49.832Z,25.32
2018-06-08T06:45:49.815Z,25.7
2018-06-08T06:46:49.781Z,26.3
2018-06-08T06:47:49.522Z,26.82
2018-06-08T06:48:49.518Z,27.31
2018-06-08T06:49:49.778Z,27.75
2018-06-08T06:50:49.533Z,28.11
2018-06-08T06:51:49.786Z,28.55
2018-06-08T06:52:49.530Z,28.78
2018-06-08T06:53:49.529Z,29.06
2018-06-08T06:54:49.536Z,29.15
2018-06-08T06:55:49.542Z,29.17
2018-06-08T06:56:49.540Z,29.45
2018-06-08T06:57:49.542Z,29.77
2018-06-08T06:58:49.881Z,30.11
2018-06-08T06:59:49.552Z,30.52
2018-06-08T07:00:49.551Z,30.96
2018-06-08T07:01:49.815Z,31.31
2018-06-08T07:02:49.306Z,31.74
2018-06-08T07:03:49.832Z,32.03
2018-06-08T07:04:49.573Z,32.32
2018-06-08T07:05:49.575Z,32.37
2018-06-08T07:06:49.581Z,32.49
2018-06-08T07:07:49.849Z,32.72
2018-06-08T07:08:49.593Z,32.91
2018-06-08T07:09:49.340Z,32.87
2018-06-08T07:10:49.861Z,32.8
2018-06-08T07:11:49.610Z,32.83
2018-06-08T07:12:49.370Z,33.02
2018-06-08T07:13:49.879Z,33.11
2018-06-08T07:14:49.633Z,33.24
2018-06-08T07:15:49.633Z,33.28
2018-06-08T07:16:49.643Z,33.37
2018-06-08T07:17:49.397Z,33.69
2018-06-08T07:18:49.749Z,33.92
2018-06-08T07:19:49.662Z,34.08
2018-06-08T07:20:49.671Z,34.18
2018-06-08T07:21:49.937Z,34.22
2018-06-08T07:22:49.946Z,34.37
2018-06-08T07:23:49.435Z,34.34
2018-06-08T07:24:50.097Z,34.43
2018-06-08T07:25:49.449Z,34.52
2018-06-08T07:26:49.978Z,34.48
2018-06-08T07:27:49.733Z,34.67
2018-06-08T07:28:49.989Z,34.75
2018-06-08T07:29:49.742Z,34.58
2018-06-08T07:30:50.009Z,34.64
2018-06-08T07:31:49.626Z,34.52
2018-06-08T07:32:50.026Z,34.48
2018-06-08T07:33:50.037Z,34.4
2018-06-08T07:34:49.786Z,34.21
2018-06-08T07:35:50.052Z,33.81
2018-06-08T07:36:50.061Z,33.26
2018-06-08T07:37:49.817Z,32.65
2018-06-08T07:38:50.080Z,32.35
2018-06-08T07:39:50.100Z,32.25
2018-06-08T07:40:50.093Z,32.13
2018-06-08T07:41:49.843Z,32.06
2018-06-08T07:42:49.598Z,31.87
2018-06-08T07:43:49.603Z,31.62
2018-06-08T07:44:50.123Z,31.67
2018-06-08T07:45:50.132Z,31.88
2018-06-08T07:46:50.298Z,32.1
2018-06-08T07:47:49.890Z,32.42
2018-06-08T07:48:49.645Z,32.47
2018-06-08T07:49:49.909Z,32.57
2018-06-08T07:50:50.173Z,32.84
2018-06-08T07:51:50.180Z,32.86
2018-06-08T07:52:49.672Z,32.93
2018-06-08T07:53:49.962Z,32.74
2018-06-08T07:54:50.205Z,32.47
2018-06-08T07:55:49.957Z,32.35
2018-06-08T07:56:50.215Z,32.08
2018-06-08T07:57:50.221Z,31.45
2018-06-08T07:58:50.240Z,30.85
2018-06-08T07:59:49.983Z,30.6
2018-06-08T08:00:50.250Z,30.64
2018-06-08T08:01:50.262Z,30.93
2018-06-08T08:02:50.009Z,31.21
2018-06-08T08:03:50.017Z,31.5
2018-06-08T08:04:50.024Z,32
2018-06-08T08:05:50.033Z,31.98
2018-06-08T08:06:50.038Z,31.67
2018-06-08T08:07:50.046Z,31.3
2018-06-08T08:08:50.054Z,30.73
2018-06-08T08:09:50.315Z,30.34
2018-06-08T08:10:50.325Z,30.03
2018-06-08T08:11:50.070Z,29.66
2018-06-08T08:12:50.334Z,29.32
2018-06-08T08:13:50.088Z,29.14
2018-06-08T08:14:50.344Z,28.78
2018-06-08T08:15:49.839Z,28.43
2018-06-08T08:16:50.358Z,28.18
2018-06-08T08:17:50.125Z,27.99
2018-06-08T08:18:49.853Z,27.8
2018-06-08T08:19:50.121Z,27.59
2018-06-08T08:20:50.387Z,27.36
2018-06-08T08:21:50.134Z,27.12
2018-06-08T08:22:50.393Z,26.84
2018-06-08T08:23:50.404Z,26.76
2018-06-08T08:24:50.155Z,26.54
2018-06-08T08:25:49.969Z,26.52
2018-06-08T08:26:49.903Z,26.52
2018-06-08T08:27:50.164Z,26.5
2018-06-08T08:28:50.168Z,26.53
2018-06-08T08:29:50.170Z,26.53
2018-06-08T08:30:50.439Z,26.76
2018-06-08T08:31:50.442Z,26.89
2018-06-08T08:32:50.443Z,27.16
2018-06-08T08:33:50.454Z,27.37
2018-06-08T08:34:50.200Z,27.57
2018-06-08T08:35:50.203Z,27.79
2018-06-08T08:36:50.475Z,27.83
2018-06-08T08:37:50.217Z,27.81
2018-06-08T08:38:50.477Z,27.96
2018-06-08T08:39:50.544Z,27.99
2018-06-08T08:40:50.226Z,28.18
2018-06-08T08:41:50.229Z,28.23
2018-06-08T08:42:50.244Z,28.2
2018-06-08T08:43:50.244Z,28.3
2018-06-08T08:44:50.503Z,28.27
2018-06-08T08:45:50.791Z,28.27
2018-06-08T08:46:50.517Z,28.35
2018-06-08T08:47:50.265Z,28.35
2018-06-08T08:48:50.267Z,28.24
2018-06-08T08:49:50.528Z,28.05
2018-06-08T08:50:50.275Z,27.86
2018-06-08T08:51:50.331Z,27.87
2018-06-08T08:52:50.283Z,27.86
2018-06-08T08:53:50.289Z,27.87
2018-06-08T08:54:50.563Z,27.8
2018-06-08T08:55:50.557Z,27.72
2018-06-08T08:56:50.811Z,27.68
2018-06-08T08:57:50.568Z,27.52
2018-06-08T08:58:50.575Z,27.45
2018-06-08T08:59:50.323Z,27.36
2018-06-08T09:00:50.325Z,27.26
2018-06-08T09:01:50.072Z,27.23
2018-06-08T09:02:50.375Z,27.28
2018-06-08T09:03:50.726Z,27.23
2018-06-08T09:04:50.348Z,27.26
2018-06-08T09:05:50.606Z,27.33
2018-06-08T09:06:50.617Z,27.27
2018-06-08T09:07:50.357Z,27.26
2018-06-08T09:08:50.631Z,27.51
2018-06-08T09:09:50.627Z,27.61
2018-06-08T09:10:50.631Z,27.76
2018-06-08T09:11:50.380Z,27.66
2018-06-08T09:12:50.378Z,27.75
2018-06-08T09:13:50.401Z,27.66
2018-06-08T09:14:50.648Z,27.69
2018-06-08T09:15:50.654Z,27.72
2018-06-08T09:16:50.651Z,27.74
2018-06-08T09:17:50.666Z,27.76
2018-06-08T09:18:50.666Z,27.74
2018-06-08T09:19:50.672Z,27.81
2018-06-08T09:20:50.687Z,28.02
2018-06-08T09:21:50.165Z,28.08
2018-06-08T09:22:50.693Z,28.36
2018-06-08T09:23:50.433Z,28.55
2018-06-08T09:24:50.176Z,28.75
2018-06-08T09:25:50.448Z,28.85
2018-06-08T09:26:50.706Z,28.94
2018-06-08T09:27:50.458Z,28.88
2018-06-08T09:28:50.711Z,28.98
2018-06-08T09:29:50.457Z,28.88
2018-06-08T09:30:50.462Z,28.9
2018-06-08T09:31:50.726Z,28.78
2018-06-08T09:32:50.474Z,28.76
2018-06-08T09:33:50.745Z,28.78
2018-06-08T09:34:50.746Z,28.83
2018-06-08T09:35:50.493Z,28.88
2018-06-08T09:36:50.763Z,28.92
2018-06-08T09:37:50.505Z,28.91
2018-06-08T09:38:50.770Z,28.9
2018-06-08T09:39:50.257Z,28.83
2018-06-08T09:40:50.778Z,28.83
2018-06-08T09:41:50.528Z,28.78
2018-06-08T09:42:50.785Z,28.85
2018-06-08T09:43:50.809Z,28.94
2018-06-08T09:44:50.802Z,29.06
2018-06-08T09:45:50.808Z,29.01
2018-06-08T09:46:50.550Z,29.03
2018-06-08T09:47:50.554Z,29.35
2018-06-08T09:48:50.562Z,29.42
2018-06-08T09:49:50.309Z,29.36
2018-06-08T09:50:50.314Z,29.3
2018-06-08T09:51:50.829Z,29.13
2018-06-08T09:52:50.840Z,29.02
2018-06-08T09:53:50.587Z,29.05
2018-06-08T09:54:50.651Z,29.1
2018-06-08T09:55:50.853Z,29.02
2018-06-08T09:56:50.602Z,28.76
2018-06-08T09:57:50.353Z,28.43
2018-06-08T09:58:50.617Z,28.12
2018-06-08T09:59:50.872Z,27.93
2018-06-08T10:00:50.886Z,27.87
2018-06-08T10:01:50.631Z,27.9
2018-06-08T10:02:50.379Z,27.93
2018-06-08T10:03:50.885Z,28.01
2018-06-08T10:04:51.272Z,28.05
2018-06-08T10:05:50.906Z,28.11
2018-06-08T10:06:50.657Z,28.24
2018-06-08T10:07:50.920Z,28.43
2018-06-08T10:08:50.665Z,28.6
2018-06-08T10:09:50.668Z,28.68
2018-06-08T10:10:50.687Z,28.8
2018-06-08T10:11:50.939Z,29.01
2018-06-08T10:12:50.942Z,29.15
2018-06-08T10:13:50.691Z,28.98
2018-06-08T10:14:50.954Z,28.88
2018-06-08T10:15:50.703Z,28.67
2018-06-08T10:16:50.974Z,28.57
2018-06-08T10:17:50.711Z,28.48
2018-06-08T10:18:50.976Z,28.41
2018-06-08T10:19:50.974Z,28.18
2018-06-08T10:20:50.725Z,28.14
2018-06-08T10:21:50.988Z,28.02
2018-06-08T10:22:50.992Z,27.89
2018-06-08T10:23:50.742Z,27.9
2018-06-08T10:24:51.005Z,27.93
2018-06-08T10:25:51.004Z,27.87
2018-06-08T10:26:51.014Z,27.87
2018-06-08T10:27:50.794Z,27.96
2018-06-08T10:28:51.028Z,28.03
2018-06-08T10:29:50.772Z,28.12
2018-06-08T10:30:51.024Z,28.11
2018-06-08T10:31:51.036Z,28.17
2018-06-08T10:32:51.044Z,28.17
2018-06-08T10:33:50.530Z,28.09
2018-06-08T10:34:50.793Z,28.09
2018-06-08T10:35:50.802Z,28.05
2018-06-08T10:36:51.058Z,28.01
2018-06-08T10:37:51.064Z,27.94
2018-06-08T10:38:51.064Z,27.89
2018-06-08T10:39:50.815Z,27.83
2018-06-08T10:40:51.088Z,27.81
2018-06-08T10:41:51.083Z,27.75
2018-06-08T10:42:50.831Z,27.87
2018-06-08T10:43:50.579Z,27.72
2018-06-08T10:44:50.582Z,27.79
2018-06-08T10:45:51.098Z,27.74
2018-06-08T10:46:51.114Z,27.79
2018-06-08T10:47:51.114Z,27.87
2018-06-08T10:48:50.598Z,28.01
2018-06-08T10:49:50.861Z,27.98
2018-06-08T10:50:51.133Z,27.98
2018-06-08T10:51:50.876Z,27.96
2018-06-08T10:52:50.874Z,27.91
2018-06-08T10:53:51.140Z,27.94
2018-06-08T10:54:51.143Z,27.91
2018-06-08T10:55:50.891Z,27.96
2018-06-08T10:56:51.152Z,27.99
2018-06-08T10:57:50.896Z,27.99
2018-06-08T10:58:50.641Z,27.96
2018-06-08T10:59:50.905Z,27.9
2018-06-08T11:00:50.908Z,27.84
2018-06-08T11:01:50.919Z,27.86
2018-06-08T11:02:51.185Z,27.86
2018-06-08T11:03:51.185Z,27.69
2018-06-08T11:04:51.184Z,27.64
2018-06-08T11:05:50.932Z,27.61
2018-06-08T11:06:51.205Z,27.45
2018-06-08T11:07:50.936Z,27.36
2018-06-08T11:08:51.256Z,27.34
2018-06-08T11:09:50.961Z,27.27
2018-06-08T11:10:51.601Z,27.28
2018-06-08T11:11:51.271Z,27.42
2018-06-08T11:12:51.743Z,27.59
2018-06-08T11:13:51.757Z,27.71
2018-06-08T11:14:51.087Z,27.75
2018-06-08T11:15:51.229Z,27.8
2018-06-08T11:16:51.325Z,27.68
2018-06-08T11:17:50.983Z,27.74
2018-06-08T11:18:50.728Z,27.76
2018-06-08T11:19:51.053Z,27.94
2018-06-08T11:20:50.994Z,27.93
2018-06-08T11:21:51.268Z,28.05
2018-06-08T11:22:50.746Z,28.06
2018-06-08T11:23:51.018Z,28.02
2018-06-08T11:24:51.271Z,28.09
2018-06-08T11:25:51.022Z,28.21
2018-06-08T11:26:51.024Z,28.09
2018-06-08T11:27:51.672Z,28.16
2018-06-08T11:28:51.288Z,28.27
2018-06-08T11:29:50.778Z,28.38
2018-06-08T11:30:51.302Z,28.61
2018-06-08T11:31:51.307Z,28.72
2018-06-08T11:32:51.074Z,28.79
2018-06-08T11:33:51.059Z,28.72
2018-06-08T11:34:51.060Z,28.6
2018-06-08T11:35:51.659Z,28.49
2018-06-08T11:36:51.290Z,28.27
2018-06-08T11:37:51.331Z,28.18
2018-06-08T11:38:51.159Z,28.18
2018-06-08T11:39:51.084Z,28.16
2018-06-08T11:40:51.549Z,28.08
2018-06-08T11:41:51.301Z,28.26
2018-06-08T11:42:51.387Z,28.31
2018-06-08T11:43:51.936Z,28.43
2018-06-08T11:44:51.248Z,28.57
2018-06-08T11:45:51.749Z,28.6
2018-06-08T11:46:51.429Z,28.57
2018-06-08T11:47:51.611Z,28.63
2018-06-08T11:48:51.525Z,28.63
2018-06-08T11:49:50.970Z,28.67
2018-06-08T11:50:51.384Z,28.58
2018-06-08T11:51:51.239Z,28.36
2018-06-08T11:52:51.363Z,28.49
2018-06-08T11:53:51.505Z,28.53
2018-06-08T11:54:51.499Z,28.53
2018-06-08T11:55:51.585Z,28.57
2018-06-08T11:56:52.072Z,28.53
2018-06-08T11:57:51.317Z,28.54
2018-06-08T11:58:51.405Z,28.67
2018-06-08T11:59:51.458Z,28.78
2018-06-08T12:00:51.187Z,28.85
2018-06-08T12:01:51.678Z,28.92
2018-06-08T12:02:51.461Z,28.9
2018-06-08T12:03:51.203Z,28.88
2018-06-08T12:04:51.473Z,28.88
2018-06-08T12:05:51.211Z,28.63
2018-06-08T12:06:51.223Z,28.49
2018-06-08T12:07:51.228Z,28.31
2018-06-08T12:08:51.222Z,28.24
2018-06-08T12:09:51.267Z,28.27
2018-06-08T12:10:51.559Z,28.17
2018-06-08T12:11:51.248Z,28.05
2018-06-08T12:12:51.648Z,28.06
2018-06-08T12:13:51.585Z,28.05
2018-06-08T12:14:51.754Z,28.03
2018-06-08T12:15:51.080Z,28.03
2018-06-08T12:16:51.266Z,28.05
2018-06-08T12:17:51.272Z,28.01
2018-06-08T12:18:51.542Z,28.17
2018-06-08T12:19:51.537Z,28.3
2018-06-08T12:20:51.547Z,28.3
2018-06-08T12:21:51.557Z,28.43
2018-06-08T12:22:51.042Z,28.58
2018-06-08T12:23:51.045Z,28.72
2018-06-08T12:24:51.312Z,28.79
2018-06-08T12:25:51.577Z,28.9
2018-06-08T12:26:51.579Z,28.85
2018-06-08T12:27:51.590Z,28.82
2018-06-08T12:28:51.584Z,28.86
2018-06-08T12:29:51.601Z,28.8
2018-06-08T12:30:51.477Z,28.78
2018-06-08T12:31:51.343Z,28.78
2018-06-08T12:32:51.617Z,28.61
2018-06-08T12:33:51.365Z,28.57
2018-06-08T12:34:51.615Z,28.7
2018-06-08T12:35:51.367Z,28.68
2018-06-08T12:36:51.373Z,28.68
2018-06-08T12:37:51.381Z,28.85
2018-06-08T12:38:51.385Z,28.86
2018-06-08T12:39:51.644Z,28.94
2018-06-08T12:40:51.398Z,28.85
2018-06-08T12:41:51.659Z,28.75
2018-06-08T12:42:51.400Z,28.61
2018-06-08T12:43:51.406Z,28.57
2018-06-08T12:44:51.407Z,28.6
2018-06-08T12:45:51.162Z,28.49
2018-06-08T12:46:51.422Z,28.53
2018-06-08T12:47:51.171Z,28.51
2018-06-08T12:48:51.440Z,28.48
2018-06-08T12:49:51.440Z,28.45
2018-06-08T12:50:51.451Z,28.54
2018-06-08T12:51:51.704Z,28.64
2018-06-08T12:52:51.574Z,28.53
2018-06-08T12:53:51.846Z,28.55
2018-06-08T12:54:51.842Z,28.73
2018-06-08T12:55:51.215Z,28.7